createdAt,value
2019-03-03T00:01:28.689Z,99563.59
2019-03-03T00:03:54.847Z,99564.13
2019-03-03T00:06:21.007Z,99567.13
2019-03-03T00:08:47.196Z,99564.17
2019-03-03T00:11:13.358Z,99568.31
2019-03-03T00:13:39.516Z,99563.64
2019-03-03T00:16:05.712Z,99570.31
2019-03-03T00:18:31.977Z,99559.34
2019-03-03T00:20:58.147Z,99573.18
2019-03-03T00:23:24.334Z,99563.86
2019-03-03T00:25:50.488Z,99564.56
2019-03-03T00:28:16.648Z,99560.41
2019-03-03T00:30:42.848Z,99567.88
2019-03-03T00:33:09.003Z,99570.76
2019-03-03T00:35:35.167Z,99572.95
2019-03-03T00:38:18.121Z,99571.39
2019-03-03T00:40:52.189Z,99568.56
2019-03-03T00:43:38.309Z,99570.88
2019-03-03T00:46:21.163Z,99571.20
2019-03-03T00:48:49.247Z,99571.53
2019-03-03T00:51:23.099Z,99571.47
2019-03-03T00:53:53.747Z,99576.09
2019-03-03T00:56:33.883Z,99576.47
2019-03-03T00:59:10.628Z,99569.16
2019-03-03T01:01:38.805Z,99570.11
2019-03-03T01:04:23.176Z,99568.36
2019-03-03T01:07:02.916Z,99573.37
2019-03-03T01:09:39.610Z,99556.13
2019-03-03T01:12:08.072Z,99566.87
2019-03-03T01:14:52.668Z,99562.81
2019-03-03T01:17:35.519Z,99567.61
2019-03-03T01:20:03.602Z,99567.44
2019-03-03T01:22:34.211Z,99572.53
2019-03-03T01:25:00.373Z,99574.84
2019-03-03T01:27:26.658Z,99579.74
2019-03-03T01:29:52.916Z,99577.45
2019-03-03T01:32:19.073Z,99576.27
2019-03-03T01:34:45.361Z,99576.27
2019-03-03T01:37:11.626Z,99581.98
2019-03-03T01:39:37.779Z,99583.22
2019-03-03T01:42:04.080Z,99581.09
2019-03-03T01:44:30.242Z,99577.95
2019-03-03T01:46:56.501Z,99586.86
2019-03-03T01:49:22.702Z,99581.14
2019-03-03T01:51:48.865Z,99584.09
2019-03-03T01:54:15.125Z,99582.91
2019-03-03T01:56:41.416Z,99583.64
2019-03-03T01:59:07.694Z,99586.14
2019-03-03T02:01:33.858Z,99581.33
2019-03-03T02:04:00.057Z,99581.87
2019-03-03T02:06:26.219Z,99585.05
2019-03-03T02:08:52.373Z,99589.37
2019-03-03T02:11:18.563Z,99588.66
2019-03-03T02:13:44.726Z,99584.45
2019-03-03T02:16:11.177Z,99582.73
2019-03-03T02:18:37.368Z,99590.48
2019-03-03T02:21:03.531Z,99584.55
2019-03-03T02:23:29.679Z,99580.98
2019-03-03T02:25:55.863Z,99585.91
2019-03-03T02:28:22.023Z,99591.03
2019-03-03T02:30:48.273Z,99572.56
2019-03-03T02:33:14.586Z,99578.77
2019-03-03T02:35:40.750Z,99575.16
2019-03-03T02:38:06.902Z,99574.50
2019-03-03T02:40:33.198Z,99578.04
2019-03-03T02:42:59.448Z,99580.94
2019-03-03T02:45:25.607Z,99578.36
2019-03-03T02:47:51.805Z,99581.58
2019-03-03T02:50:17.968Z,99576.59
2019-03-03T02:52:44.317Z,99576.84
2019-03-03T02:55:16.241Z,99581.42
2019-03-03T02:57:42.787Z,99586.95
2019-03-03T03:00:23.422Z,99586.42
2019-03-03T03:02:54.262Z,99594.04
2019-03-03T03:05:42.017Z,99591.66
2019-03-03T03:08:10.293Z,99588.20
2019-03-03T03:10:38.354Z,99593.06
2019-03-03T03:13:09.449Z,99586.09
2019-03-03T03:15:40.384Z,99587.36
2019-03-03T03:20:59.746Z,99604.95
2019-03-03T03:23:27.854Z,99602.67
2019-03-03T03:25:55.933Z,99604.33
2019-03-03T03:28:26.533Z,99603.07
2019-03-03T03:30:57.154Z,99604.96
2019-03-03T03:33:28.214Z,99611.35
2019-03-03T03:35:59.095Z,99605.69
2019-03-03T03:38:27.155Z,99605.92
2019-03-03T03:41:10.085Z,99616.98
2019-03-03T03:43:38.133Z,99617.24
2019-03-03T03:46:18.274Z,99616.39
2019-03-03T03:49:03.080Z,99613.22
2019-03-03T03:51:43.009Z,99623.91
2019-03-03T03:54:11.181Z,99616.78
2019-03-03T03:59:22.810Z,99618.47
2019-03-03T04:01:50.889Z,99626.22
2019-03-03T04:04:31.277Z,99631.84
2019-03-03T04:07:02.305Z,99632.84
2019-03-03T04:09:30.362Z,99623.20
2019-03-03T04:11:58.429Z,99628.20
2019-03-03T04:14:26.558Z,99626.24
2019-03-03T04:17:03.357Z,99630.50
2019-03-03T04:19:40.143Z,99634.87
2019-03-03T04:22:14.110Z,99636.37
2019-03-03T04:24:45.145Z,99635.95
2019-03-03T04:27:29.555Z,99634.98
2019-03-03T04:30:09.345Z,99639.88
2019-03-03T04:32:49.395Z,99641.02
2019-03-03T04:35:23.014Z,99645.41
2019-03-03T04:38:00.169Z,99642.78
2019-03-03T04:40:28.253Z,99641.75
2019-03-03T04:42:56.313Z,99643.42
2019-03-03T04:45:27.445Z,99648.16
2019-03-03T04:48:07.438Z,99648.53
2019-03-03T04:50:41.594Z,99646.07
2019-03-03T04:53:27.856Z,99641.45
2019-03-03T04:55:55.915Z,99643.20
2019-03-03T04:58:29.608Z,99648.38
2019-03-03T05:01:00.209Z,99653.20
2019-03-03T05:03:37.068Z,99654.66
2019-03-03T05:06:07.748Z,99659.48
2019-03-03T05:08:35.820Z,99657.09
2019-03-03T05:11:06.988Z,99662.05
2019-03-03T05:13:37.814Z,99665.84
2019-03-03T05:16:22.461Z,99664.11
2019-03-03T05:18:50.516Z,99667.86
2019-03-03T05:21:16.675Z,99667.30
2019-03-03T05:23:42.964Z,99664.27
2019-03-03T05:26:09.110Z,99661.12
2019-03-03T05:28:35.278Z,99665.17
2019-03-03T05:31:01.565Z,99665.28
2019-03-03T05:33:27.722Z,99671.38
2019-03-03T05:35:53.872Z,99670.27
2019-03-03T05:38:20.068Z,99665.66
2019-03-03T05:40:46.234Z,99661.47
2019-03-03T05:43:12.503Z,99663.00
2019-03-03T05:45:38.797Z,99662.45
2019-03-03T05:48:04.998Z,99666.52
2019-03-03T05:50:31.248Z,99665.79
2019-03-03T05:52:57.567Z,99663.99
2019-03-03T05:55:23.718Z,99669.45
2019-03-03T05:57:50.102Z,99673.02
2019-03-03T06:00:16.401Z,99673.32
2019-03-03T06:02:42.565Z,99672.72
2019-03-03T06:05:08.737Z,99677.47
2019-03-03T06:07:35.031Z,99673.13
2019-03-03T06:10:01.197Z,99682.90
2019-03-03T06:12:27.389Z,99688.67
2019-03-03T06:14:53.696Z,99687.25
2019-03-03T06:17:19.859Z,99688.53
2019-03-03T06:19:46.122Z,99695.77
2019-03-03T06:22:12.417Z,99705.03
2019-03-03T06:24:38.571Z,99704.94
2019-03-03T06:27:04.735Z,99714.13
2019-03-03T06:29:31.032Z,99719.00
2019-03-03T06:31:57.201Z,99738.37
2019-03-03T06:34:23.359Z,99733.70
2019-03-03T06:36:49.565Z,99743.59
2019-03-03T06:39:15.724Z,99737.94
2019-03-03T06:41:41.880Z,99746.17
2019-03-03T06:44:08.194Z,99757.41
2019-03-03T06:46:34.354Z,99756.83
2019-03-03T06:49:00.522Z,99757.74
2019-03-03T06:51:26.712Z,99764.87
2019-03-03T06:53:52.958Z,99762.88
2019-03-03T06:56:19.224Z,99757.86
2019-03-03T06:58:45.435Z,99765.57
2019-03-03T07:01:11.587Z,99760.88
2019-03-03T07:03:37.743Z,99766.73
2019-03-03T07:06:04.030Z,99769.14
2019-03-03T07:08:30.240Z,99771.52
2019-03-03T07:10:56.511Z,99772.13
2019-03-03T07:13:22.746Z,99770.97
2019-03-03T07:15:48.933Z,99772.19
2019-03-03T07:18:15.089Z,99776.93
2019-03-03T07:20:41.389Z,99769.45
2019-03-03T07:23:07.549Z,99764.52
2019-03-03T07:25:33.816Z,99770.23
2019-03-03T07:28:00.130Z,99771.40
2019-03-03T07:30:26.392Z,99761.76
2019-03-03T07:33:03.504Z,99760.41
2019-03-03T07:35:29.709Z,99763.03
2019-03-03T07:37:55.872Z,99760.44
2019-03-03T07:40:22.066Z,99768.22
2019-03-03T07:42:48.222Z,99763.56
2019-03-03T07:45:14.485Z,99766.99
2019-03-03T07:47:40.783Z,99771.77
2019-03-03T07:50:07.247Z,99766.09
2019-03-03T07:52:33.408Z,99771.27
2019-03-03T07:54:59.607Z,99777.58
2019-03-03T07:57:25.765Z,99778.89
2019-03-03T07:59:52.230Z,99794.34
2019-03-03T08:02:18.539Z,99775.99
2019-03-03T08:04:44.696Z,99780.48
2019-03-03T08:07:10.962Z,99787.20
2019-03-03T08:09:41.088Z,99770.14
2019-03-03T08:12:09.164Z,99771.27
2019-03-03T08:14:35.386Z,99770.23
2019-03-03T08:17:01.858Z,99777.77
2019-03-03T08:19:28.031Z,99780.42
2019-03-03T08:21:54.241Z,99778.11
2019-03-03T08:24:20.501Z,99780.70
2019-03-03T08:26:46.785Z,99786.43
2019-03-03T08:29:12.926Z,99773.30
2019-03-03T08:31:41.191Z,99795.28
2019-03-03T08:34:07.360Z,99789.74
2019-03-03T08:36:33.521Z,99792.45
2019-03-03T08:38:59.858Z,99796.52
2019-03-03T08:41:26.129Z,99796.64
2019-03-03T08:43:56.985Z,99820.39
2019-03-03T08:46:25.095Z,99817.14
2019-03-03T08:48:53.561Z,99825.77
2019-03-03T08:51:21.640Z,99817.03
2019-03-03T08:54:01.524Z,99832.27
2019-03-03T08:56:46.161Z,99829.16
2019-03-03T08:59:14.277Z,99821.53
2019-03-03T09:01:58.852Z,99831.92
2019-03-03T09:04:32.522Z,99831.54
2019-03-03T09:07:17.044Z,99827.98
2019-03-03T09:09:47.676Z,99834.89
2019-03-03T09:12:27.373Z,99835.36
2019-03-03T09:15:10.622Z,99844.63
2019-03-03T09:17:41.409Z,99845.64
2019-03-03T09:20:10.478Z,99842.70
2019-03-03T09:25:37.393Z,99854.88
2019-03-03T09:28:11.221Z,99848.82
2019-03-03T09:30:39.309Z,99852.89
2019-03-03T09:33:07.409Z,99856.40
2019-03-03T09:35:38.396Z,99858.53
2019-03-03T09:38:12.340Z,99871.78
2019-03-03T09:40:52.487Z,99886.83
2019-03-03T09:43:20.550Z,99866.23
2019-03-03T09:45:57.645Z,99870.09
2019-03-03T09:48:25.712Z,99880.52
2019-03-03T09:51:00.190Z,99878.78
2019-03-03T09:56:27.725Z,99872.41
2019-03-03T09:59:07.818Z,99863.92
2019-03-03T10:01:38.705Z,99866.93
2019-03-03T10:04:09.537Z,99873.01
2019-03-03T10:06:43.806Z,99876.20
2019-03-03T10:09:12.305Z,99874.76
2019-03-03T10:11:40.394Z,99867.03
2019-03-03T10:14:08.635Z,99859.39
2019-03-03T10:16:36.699Z,99868.72
2019-03-03T10:19:07.241Z,99873.70
2019-03-03T10:21:37.385Z,99869.41
2019-03-03T10:24:05.490Z,99857.77
2019-03-03T10:26:35.079Z,99870.94
2019-03-03T10:29:03.366Z,99860.00
2019-03-03T10:31:31.426Z,99849.08
2019-03-03T10:34:08.429Z,99853.73
2019-03-03T10:36:45.167Z,99854.34
2019-03-03T10:39:16.352Z,99835.13
2019-03-03T10:41:44.412Z,99846.86
2019-03-03T10:44:18.288Z,99845.21
2019-03-03T10:46:48.892Z,99831.53
2019-03-03T10:49:33.343Z,99826.57
2019-03-03T10:52:06.965Z,99833.34
2019-03-03T10:54:40.870Z,99831.31
2019-03-03T10:57:25.706Z,99830.77
2019-03-03T10:59:56.310Z,99824.19
2019-03-03T11:02:40.639Z,99823.64
2019-03-03T11:05:08.935Z,99826.08
2019-03-03T11:07:53.593Z,99837.66
2019-03-03T11:10:24.211Z,99832.52
2019-03-03T11:12:58.325Z,99836.05
2019-03-03T11:15:35.082Z,99835.36
2019-03-03T11:18:08.751Z,99845.27
2019-03-03T11:20:39.627Z,99841.87
2019-03-03T11:23:07.684Z,99840.47
2019-03-03T11:25:35.757Z,99838.51
2019-03-03T11:28:23.384Z,99843.42
2019-03-03T11:30:49.023Z,99842.41
2019-03-03T11:33:17.120Z,99840.91
2019-03-03T11:35:48.445Z,99839.70
2019-03-03T11:38:19.570Z,99841.70
2019-03-03T11:40:56.644Z,99835.64
2019-03-03T11:43:27.302Z,99843.73
2019-03-03T11:45:58.246Z,99832.79
2019-03-03T11:48:38.180Z,99831.73
2019-03-03T11:51:06.261Z,99824.13
2019-03-03T11:53:37.356Z,99813.51
2019-03-03T11:56:05.469Z,99807.10
2019-03-03T11:58:48.757Z,99809.30
2019-03-03T12:01:33.464Z,99808.34
2019-03-03T12:04:04.559Z,99800.92
2019-03-03T12:06:49.212Z,99792.12
2019-03-03T12:09:19.925Z,99801.98
2019-03-03T12:11:51.090Z,99792.25
2019-03-03T12:14:19.159Z,99794.24
2019-03-03T12:16:59.392Z,99794.45
2019-03-03T12:19:33.288Z,99794.63
2019-03-03T12:22:01.396Z,99797.56
2019-03-03T12:24:31.996Z,99793.08
2019-03-03T12:27:00.055Z,99791.52
2019-03-03T12:29:36.906Z,99789.97
2019-03-03T12:32:21.256Z,99782.39
2019-03-03T12:34:54.988Z,99784.77
2019-03-03T12:37:23.055Z,99782.34
2019-03-03T12:39:51.124Z,99785.28
2019-03-03T12:42:31.375Z,99777.12
2019-03-03T12:45:01.968Z,99784.78
2019-03-03T12:47:30.072Z,99780.78
2019-03-03T12:50:06.989Z,99774.09
2019-03-03T12:52:37.847Z,99778.92
2019-03-03T12:55:16.565Z,99773.06
2019-03-03T12:57:45.039Z,99765.69
2019-03-03T13:00:22.213Z,99753.42
2019-03-03T13:03:06.821Z,99748.23
2019-03-03T13:05:49.783Z,99758.22
2019-03-03T13:08:32.732Z,99747.49
2019-03-03T13:11:03.755Z,99757.08
2019-03-03T13:13:48.387Z,99760.77
2019-03-03T13:16:22.063Z,99763.43
2019-03-03T13:18:53.803Z,99758.75
2019-03-03T13:21:21.897Z,99746.62
2019-03-03T13:24:05.109Z,99739.11
2019-03-03T13:26:45.177Z,99731.66
2019-03-03T13:29:19.014Z,99740.84
2019-03-03T13:31:55.909Z,99736.94
2019-03-03T13:34:24.032Z,99745.61
2019-03-03T13:36:52.121Z,99746.86
2019-03-03T13:39:20.186Z,99741.70
2019-03-03T13:41:54.091Z,99740.25
2019-03-03T13:44:20.262Z,99748.08
2019-03-03T13:46:48.002Z,99745.73
2019-03-03T13:49:14.203Z,99745.27
2019-03-03T13:51:40.383Z,99747.66
2019-03-03T13:54:06.722Z,99756.17
2019-03-03T13:56:33.373Z,99750.92
2019-03-03T13:58:59.643Z,99745.25
2019-03-03T14:01:25.914Z,99747.40
2019-03-03T14:03:52.425Z,99743.19
2019-03-03T14:06:20.429Z,99745.06
2019-03-03T14:08:46.691Z,99741.63
2019-03-03T14:11:12.892Z,99750.80
2019-03-03T14:13:50.183Z,99743.25
2019-03-03T14:16:16.379Z,99753.33
2019-03-03T14:18:42.546Z,99751.60
2019-03-03T14:21:08.968Z,99747.66
2019-03-03T14:23:35.176Z,99743.04
2019-03-03T14:26:01.460Z,99735.47
2019-03-03T14:28:27.725Z,99735.42
2019-03-03T14:30:54.025Z,99737.23
2019-03-03T14:33:20.306Z,99726.42
2019-03-03T14:35:46.426Z,99731.42
2019-03-03T14:38:12.633Z,99725.09
2019-03-03T14:40:38.796Z,99730.12
2019-03-03T14:43:04.957Z,99740.21
2019-03-03T14:45:31.156Z,99734.98
2019-03-03T14:47:57.325Z,99732.20
2019-03-03T14:50:23.543Z,99731.41
2019-03-03T14:52:51.795Z,99736.91
2019-03-03T14:55:19.075Z,99736.38
2019-03-03T14:57:45.554Z,99735.55
2019-03-03T15:00:26.161Z,99732.55
2019-03-03T15:02:52.828Z,99735.09
2019-03-03T15:05:20.278Z,99735.17
2019-03-03T15:07:46.476Z,99733.83
2019-03-03T15:10:12.745Z,99735.64
2019-03-03T15:12:38.912Z,99732.95
2019-03-03T15:15:20.197Z,99730.98
2019-03-03T15:17:46.467Z,99733.02
2019-03-03T15:20:13.646Z,99728.58
2019-03-03T15:22:39.889Z,99732.08
2019-03-03T15:25:10.676Z,99733.76
2019-03-03T15:27:36.949Z,99728.58
2019-03-03T15:30:06.856Z,99732.43
2019-03-03T15:32:33.024Z,99731.11
2019-03-03T15:34:59.192Z,99735.85
2019-03-03T15:37:26.187Z,99726.52
2019-03-03T15:39:52.359Z,99733.97
2019-03-03T15:42:18.523Z,99730.98
2019-03-03T15:44:44.821Z,99729.95
2019-03-03T15:47:11.078Z,99732.63
2019-03-03T15:49:37.247Z,99725.64
2019-03-03T15:52:03.456Z,99731.31
2019-03-03T15:54:29.730Z,99729.34
2019-03-03T15:56:55.899Z,99729.80
2019-03-03T15:59:22.209Z,99730.97
2019-03-03T16:01:48.381Z,99733.11
2019-03-03T16:04:14.553Z,99734.78
2019-03-03T16:06:40.756Z,99734.14
2019-03-03T16:09:07.725Z,99741.27
2019-03-03T16:11:33.887Z,99745.17
2019-03-03T16:14:00.084Z,99751.81
2019-03-03T16:16:26.243Z,99751.53
2019-03-03T16:18:52.510Z,99752.47
2019-03-03T16:21:18.829Z,99758.73
2019-03-03T16:23:45.912Z,99746.61
2019-03-03T16:26:12.071Z,99747.57
2019-03-03T16:28:38.265Z,99754.75
2019-03-03T16:31:04.518Z,99748.28
2019-03-03T16:33:30.796Z,99758.38
2019-03-03T16:35:57.105Z,99758.86
2019-03-03T16:38:23.276Z,99762.48
2019-03-03T16:40:49.547Z,99761.77
2019-03-03T16:43:15.842Z,99765.13
2019-03-03T16:45:42.111Z,99766.19
2019-03-03T16:48:08.306Z,99763.03
2019-03-03T16:50:34.467Z,99762.61
2019-03-03T16:53:00.747Z,99766.13
2019-03-03T16:55:26.913Z,99771.98
2019-03-03T16:57:53.206Z,99769.62
2019-03-03T17:00:23.529Z,99765.25
2019-03-03T17:02:49.696Z,99762.40
2019-03-03T17:05:17.890Z,99766.89
2019-03-03T17:07:44.052Z,99766.67
2019-03-03T17:10:11.811Z,99770.37
2019-03-03T17:12:38.505Z,99768.28
2019-03-03T17:15:08.267Z,99771.00
2019-03-03T17:17:34.431Z,99766.64
2019-03-03T17:20:00.744Z,99779.19
2019-03-03T17:22:26.901Z,99772.31
2019-03-03T17:24:53.073Z,99769.49
2019-03-03T17:27:19.267Z,99772.79
2019-03-03T17:29:45.541Z,99770.06
2019-03-03T17:32:11.702Z,99784.24
2019-03-03T17:34:37.898Z,99777.66
2019-03-03T17:37:04.056Z,99777.73
2019-03-03T17:39:30.321Z,99771.12
2019-03-03T17:41:56.620Z,99769.98
2019-03-03T17:44:22.803Z,99780.10
2019-03-03T17:46:48.961Z,99782.52
2019-03-03T17:49:15.166Z,99776.14
2019-03-03T17:51:41.320Z,99778.39
2019-03-03T17:54:07.585Z,99776.66
2019-03-03T17:56:33.957Z,99776.91
2019-03-03T17:59:00.121Z,99777.00
2019-03-03T18:01:26.380Z,99776.42
2019-03-03T18:03:52.690Z,99779.09
2019-03-03T18:06:19.443Z,99779.14
2019-03-03T18:08:45.612Z,99781.44
2019-03-03T18:11:11.805Z,99781.08
2019-03-03T18:13:43.902Z,99778.73
2019-03-03T18:16:10.066Z,99781.89
2019-03-03T18:18:36.358Z,99783.20
2019-03-03T18:21:02.816Z,99783.66
2019-03-03T18:23:29.773Z,99778.63
2019-03-03T18:25:56.227Z,99784.20
2019-03-03T18:28:22.397Z,99778.82
2019-03-03T18:30:48.558Z,99782.05
2019-03-03T18:33:15.657Z,99782.00
2019-03-03T18:35:41.930Z,99778.97
2019-03-03T18:38:08.193Z,99776.72
2019-03-03T18:40:34.395Z,99783.57
2019-03-03T18:43:00.552Z,99778.13
2019-03-03T18:45:26.709Z,99771.76
2019-03-03T18:47:52.912Z,99778.72
2019-03-03T18:50:23.565Z,99779.77
2019-03-03T18:52:49.849Z,99774.90
2019-03-03T18:55:16.032Z,99774.14
2019-03-03T18:57:42.196Z,99772.78
2019-03-03T19:00:14.639Z,99778.00
2019-03-03T19:02:40.835Z,99778.94
2019-03-03T19:05:07.498Z,99782.02
2019-03-03T19:07:33.669Z,99778.83
2019-03-03T19:09:59.857Z,99778.98
2019-03-03T19:12:26.114Z,99773.58
2019-03-03T19:14:52.280Z,99770.03
2019-03-03T19:17:18.587Z,99774.67
2019-03-03T19:19:44.886Z,99772.20
2019-03-03T19:22:11.002Z,99765.56
2019-03-03T19:24:37.205Z,99764.44
2019-03-03T19:27:03.480Z,99760.51
2019-03-03T19:29:29.635Z,99760.70
2019-03-03T19:31:55.928Z,99764.67
2019-03-03T19:34:22.095Z,99763.84
2019-03-03T19:36:48.255Z,99753.17
2019-03-03T19:39:16.189Z,99751.43
2019-03-03T19:41:43.332Z,99756.01
2019-03-03T19:44:11.252Z,99752.23
2019-03-03T19:46:37.581Z,99754.02
2019-03-03T19:49:03.745Z,99746.61
2019-03-03T19:51:29.943Z,99750.91
2019-03-03T19:53:56.137Z,99751.93
2019-03-03T19:56:22.302Z,99749.77
2019-03-03T19:58:48.886Z,99749.39
2019-03-03T20:01:15.182Z,99748.56
2019-03-03T20:03:41.445Z,99746.48
2019-03-03T20:06:08.021Z,99743.69
2019-03-03T20:08:35.215Z,99740.91
2019-03-03T20:11:01.399Z,99743.61
2019-03-03T20:13:27.761Z,99746.83
2019-03-03T20:15:53.948Z,99739.55
2019-03-03T20:18:20.162Z,99725.22
2019-03-03T20:20:46.380Z,99729.53
2019-03-03T20:23:12.571Z,99733.00
2019-03-03T20:25:38.844Z,99728.32
2019-03-03T20:28:05.054Z,99731.40
2019-03-03T20:30:31.345Z,99727.05
2019-03-03T20:32:57.605Z,99729.07
2019-03-03T20:35:23.768Z,99729.25
2019-03-03T20:37:50.367Z,99722.34
2019-03-03T20:40:24.995Z,99724.25
2019-03-03T20:42:52.527Z,99724.94
2019-03-03T20:45:30.192Z,99727.98
2019-03-03T20:47:56.590Z,99723.75
2019-03-03T20:50:22.846Z,99718.04
2019-03-03T20:52:49.895Z,99719.36
2019-03-03T20:55:17.993Z,99722.90
2019-03-03T20:57:44.153Z,99720.05
2019-03-03T21:00:13.520Z,99716.63
2019-03-03T21:02:39.708Z,99722.14
2019-03-03T21:05:07.166Z,99724.22
2019-03-03T21:07:33.738Z,99720.49
2019-03-03T21:10:00.027Z,99720.52
2019-03-03T21:12:26.194Z,99719.22
2019-03-03T21:14:52.360Z,99712.46
2019-03-03T21:17:18.549Z,99710.38
2019-03-03T21:19:44.705Z,99707.76
2019-03-03T21:22:10.859Z,99710.59
2019-03-03T21:24:37.065Z,99709.14
2019-03-03T21:27:03.216Z,99706.71
2019-03-03T21:29:29.452Z,99699.56
2019-03-03T21:31:55.640Z,99700.50
2019-03-03T21:34:21.804Z,99697.04
2019-03-03T21:36:47.968Z,99694.55
2019-03-03T21:39:14.154Z,99689.03
2019-03-03T21:41:40.310Z,99689.91
2019-03-03T21:44:06.464Z,99686.31
2019-03-03T21:46:32.753Z,99689.98
2019-03-03T21:48:58.916Z,99681.56
2019-03-03T21:51:25.078Z,99688.87
2019-03-03T21:53:51.267Z,99677.80
2019-03-03T21:56:17.633Z,99684.30
2019-03-03T21:58:43.790Z,99663.81
2019-03-03T22:01:09.984Z,99670.30
2019-03-03T22:03:36.139Z,99662.17
2019-03-03T22:06:02.397Z,99663.31
2019-03-03T22:08:28.693Z,99664.99
2019-03-03T22:10:54.853Z,99662.31
2019-03-03T22:13:21.014Z,99657.95
2019-03-03T22:15:47.216Z,99654.18
2019-03-03T22:18:13.353Z,99658.41
2019-03-03T22:20:39.511Z,99651.16
2019-03-03T22:23:05.700Z,99652.88
2019-03-03T22:25:31.859Z,99648.86
2019-03-03T22:27:58.022Z,99646.55
2019-03-03T22:30:24.338Z,99645.04
2019-03-03T22:32:50.504Z,99646.66
2019-03-03T22:35:17.255Z,99640.23
2019-03-03T22:37:43.450Z,99644.97
2019-03-03T22:40:17.170Z,99646.23
2019-03-03T22:42:43.436Z,99638.45
2019-03-03T22:45:16.589Z,99640.05
2019-03-03T22:47:42.852Z,99644.56
2019-03-03T22:50:16.150Z,99641.55
2019-03-03T22:52:42.544Z,99636.52
2019-03-03T22:55:11.808Z,99645.88
2019-03-03T22:57:38.072Z,99650.09
2019-03-03T23:00:28.064Z,99652.35
2019-03-03T23:02:54.329Z,99653.53
2019-03-03T23:05:30.364Z,99656.48
2019-03-03T23:08:00.122Z,99653.38
2019-03-03T23:10:34.798Z,99660.98
2019-03-03T23:13:13.232Z,99654.66
2019-03-03T23:15:52.311Z,99653.78
2019-03-03T23:18:37.227Z,99651.22
2019-03-03T23:21:13.039Z,99655.66
2019-03-03T23:23:45.972Z,99656.18
2019-03-03T23:26:16.570Z,99661.27
2019-03-03T23:28:40.333Z,99658.70
2019-03-03T23:31:06.497Z,99658.27
2019-03-03T23:33:32.653Z,99660.37
2019-03-03T23:35:58.841Z,99656.80
2019-03-03T23:38:25.096Z,99663.45
2019-03-03T23:40:51.363Z,99664.13
2019-03-03T23:43:17.665Z,99666.16
2019-03-03T23:45:43.831Z,99662.30
2019-03-03T23:48:09.985Z,99657.95
2019-03-03T23:50:36.279Z,99656.13
2019-03-03T23:53:02.444Z,99661.23
2019-03-03T23:55:28.601Z,99659.14
2019-03-03T23:57:54.784Z,99660.94
